createdAt,value
2018-03-08T00:01:18.939Z,69.10
2018-03-08T00:03:46.405Z,69.30
2018-03-08T00:06:13.852Z,69.80
2018-03-08T00:08:41.318Z,70.40
2018-03-08T00:11:08.772Z,70.70
2018-03-08T00:13:36.278Z,70.70
2018-03-08T00:16:03.761Z,70.80
2018-03-08T00:18:31.992Z,70.70
2018-03-08T00:20:59.449Z,70.70
2018-03-08T00:23:26.900Z,70.30
2018-03-08T00:25:54.368Z,70.50
2018-03-08T00:28:21.827Z,70.60
2018-03-08T00:30:49.305Z,70.40
2018-03-08T00:33:16.762Z,70.00
2018-03-08T00:35:44.224Z,69.00
2018-03-08T00:38:11.676Z,68.70
2018-03-08T00:40:39.145Z,68.00
2018-03-08T00:43:07.371Z,68.20
2018-03-08T00:45:34.837Z,68.20
2018-03-08T00:48:02.298Z,68.50
2018-03-08T00:50:29.769Z,68.40
2018-03-08T00:52:57.236Z,68.70
2018-03-08T00:55:24.692Z,68.80
2018-03-08T00:57:52.153Z,68.70
2018-03-08T01:00:19.613Z,68.80
2018-03-08T01:02:47.091Z,68.80
2018-03-08T01:05:15.327Z,68.50
2018-03-08T01:07:42.793Z,68.50
2018-03-08T01:10:10.264Z,68.70
2018-03-08T01:12:37.717Z,68.50
2018-03-08T01:15:05.187Z,69.30
2018-03-08T01:17:33.415Z,68.70
2018-03-08T01:20:00.888Z,68.60
2018-03-08T01:22:28.357Z,68.60
2018-03-08T01:24:55.826Z,68.60
2018-03-08T01:27:23.281Z,68.10
2018-03-08T01:29:50.749Z,68.10
2018-03-08T01:32:18.965Z,68.30
2018-03-08T01:34:46.422Z,68.20
2018-03-08T01:37:13.888Z,68.10
2018-03-08T01:39:41.341Z,68.90
2018-03-08T01:42:08.806Z,68.80
2018-03-08T01:44:36.269Z,68.40
2018-03-08T01:47:03.737Z,68.90
2018-03-08T01:49:31.186Z,68.50
2018-03-08T01:52:10.494Z,68.40
2018-03-08T01:54:37.955Z,68.60
2018-03-08T01:57:05.436Z,68.70
2018-03-08T01:59:32.900Z,68.90
2018-03-08T02:02:00.365Z,69.00
2018-03-08T02:04:27.820Z,69.30
2018-03-08T02:06:55.281Z,69.00
2018-03-08T02:09:22.745Z,69.30
2018-03-08T02:11:50.205Z,70.10
2018-03-08T02:14:17.658Z,70.10
2018-03-08T02:19:19.131Z,70.60
2018-03-08T02:21:46.604Z,70.70
2018-03-08T02:24:14.822Z,70.70
2018-03-08T02:26:42.295Z,70.60
2018-03-08T02:29:09.740Z,70.90
2018-03-08T02:31:37.209Z,71.00
2018-03-08T02:34:04.657Z,71.10
2018-03-08T02:36:32.129Z,71.10
2018-03-08T02:38:59.581Z,71.00
2018-03-08T02:41:27.042Z,70.90
2018-03-08T02:43:54.504Z,70.50
2018-03-08T02:46:21.966Z,71.00
2018-03-08T02:48:50.184Z,70.70
2018-03-08T02:51:17.680Z,70.70
2018-03-08T02:53:45.145Z,70.60
2018-03-08T02:56:12.601Z,70.30
2018-03-08T02:58:40.067Z,70.30
2018-03-08T03:01:07.517Z,70.60
2018-03-08T03:03:34.996Z,70.10
2018-03-08T03:06:02.458Z,69.80
2018-03-08T03:08:29.922Z,69.80
2018-03-08T03:10:57.382Z,69.40
2018-03-08T03:13:24.838Z,70.00
2018-03-08T03:15:52.289Z,68.60
2018-03-08T03:18:19.752Z,68.80
2018-03-08T03:20:47.228Z,68.60
2018-03-08T03:23:15.453Z,68.40
2018-03-08T03:25:42.913Z,68.40
2018-03-08T03:28:10.375Z,68.20
2018-03-08T03:30:37.830Z,67.80
2018-03-08T03:33:05.296Z,67.70
2018-03-08T03:35:32.755Z,68.00
2018-03-08T03:38:00.221Z,67.60
2018-03-08T03:40:27.683Z,67.80
2018-03-08T03:42:55.161Z,67.70
2018-03-08T03:45:23.381Z,67.50
2018-03-08T03:47:50.842Z,67.50
2018-03-08T03:50:18.308Z,67.70
2018-03-08T03:52:45.772Z,68.20
2018-03-08T03:55:13.228Z,67.90
2018-03-08T03:57:40.684Z,67.80
2018-03-08T04:00:08.147Z,67.30
2018-03-08T04:02:35.606Z,67.30
2018-03-08T04:05:03.092Z,67.20
2018-03-08T04:07:31.311Z,67.80
2018-03-08T04:09:58.770Z,67.70
2018-03-08T04:12:26.234Z,67.70
2018-03-08T04:14:53.698Z,67.30
2018-03-08T04:17:21.148Z,67.30
2018-03-08T04:19:49.377Z,67.40
2018-03-08T04:22:17.600Z,67.20
2018-03-08T04:24:45.072Z,67.10
2018-03-08T04:27:12.520Z,67.50
2018-03-08T04:29:39.988Z,67.20
2018-03-08T04:32:07.443Z,66.60
2018-03-08T04:34:34.929Z,66.30
2018-03-08T04:37:03.149Z,66.10
2018-03-08T04:39:30.654Z,66.10
2018-03-08T04:41:58.107Z,65.80
2018-03-08T04:44:25.570Z,65.80
2018-03-08T04:46:53.025Z,66.30
2018-03-08T04:49:20.485Z,66.10
2018-03-08T04:51:47.965Z,66.00
2018-03-08T04:54:15.440Z,66.80
2018-03-08T04:56:42.891Z,66.50
2018-03-08T04:59:10.361Z,66.80
2018-03-08T05:01:37.819Z,67.10
2018-03-08T05:04:05.293Z,67.20
2018-03-08T05:06:32.747Z,67.00
2018-03-08T05:09:00.224Z,66.70
2018-03-08T05:11:27.680Z,67.10
2018-03-08T05:13:55.160Z,67.40
2018-03-08T05:16:22.637Z,67.70
2018-03-08T05:18:50.864Z,68.00
2018-03-08T05:21:18.322Z,67.80
2018-03-08T05:23:45.819Z,68.70
2018-03-08T05:26:13.294Z,68.60
2018-03-08T05:28:40.752Z,68.20
2018-03-08T05:31:08.242Z,68.40
2018-03-08T05:33:35.692Z,68.80
2018-03-08T05:36:03.166Z,68.60
2018-03-08T05:38:30.648Z,68.10
2018-03-08T05:40:58.114Z,68.10
2018-03-08T05:43:25.616Z,67.90
2018-03-08T05:45:53.096Z,67.90
2018-03-08T05:48:20.567Z,67.80
2018-03-08T05:50:48.038Z,67.50
2018-03-08T05:53:15.493Z,67.30
2018-03-08T05:55:42.970Z,67.20
2018-03-08T05:58:11.192Z,67.30
2018-03-08T06:00:38.665Z,67.30
2018-03-08T06:03:06.131Z,66.80
2018-03-08T06:05:33.611Z,66.90
2018-03-08T06:08:01.065Z,66.50
2018-03-08T06:10:28.565Z,66.40
2018-03-08T06:12:56.049Z,65.50
2018-03-08T06:15:23.545Z,66.20
2018-03-08T06:17:51.789Z,65.40
2018-03-08T06:20:19.272Z,65.40
2018-03-08T06:22:47.556Z,65.00
2018-03-08T06:25:15.805Z,65.40
2018-03-08T06:27:53.233Z,65.30
2018-03-08T06:30:21.462Z,64.40
2018-03-08T06:32:48.925Z,64.20
2018-03-08T06:35:16.382Z,64.50
2018-03-08T06:37:43.856Z,63.90
2018-03-08T06:40:11.330Z,63.70
2018-03-08T06:42:39.568Z,63.60
2018-03-08T06:45:07.106Z,63.60
2018-03-08T06:47:34.617Z,64.10
2018-03-08T06:50:02.840Z,63.90
2018-03-08T06:52:31.398Z,63.90
2018-03-08T06:54:59.782Z,63.40
2018-03-08T06:57:27.298Z,63.30
2018-03-08T06:59:54.816Z,62.80
2018-03-08T07:02:22.346Z,62.60
2018-03-08T07:04:50.620Z,61.50
2018-03-08T07:07:18.942Z,61.10
2018-03-08T07:09:46.471Z,61.00
2018-03-08T07:12:14.020Z,60.70
2018-03-08T07:14:41.580Z,61.00
2018-03-08T07:17:09.112Z,61.00
2018-03-08T07:19:37.436Z,59.60
2018-03-08T07:22:04.986Z,59.50
2018-03-08T07:24:34.337Z,59.70
2018-03-08T07:27:01.850Z,60.00
2018-03-08T07:29:29.378Z,59.40
2018-03-08T07:31:57.673Z,58.50
2018-03-08T07:34:25.210Z,58.30
2018-03-08T07:36:53.514Z,57.60
2018-03-08T07:39:21.059Z,57.50
2018-03-08T07:41:49.363Z,56.70
2018-03-08T07:44:16.897Z,56.60
2018-03-08T07:46:44.446Z,57.10
2018-03-08T07:49:12.753Z,57.00
2018-03-08T07:51:40.255Z,57.00
2018-03-08T07:54:07.794Z,56.30
2018-03-08T07:56:35.302Z,55.90
2018-03-08T07:59:03.583Z,56.10
2018-03-08T08:01:31.870Z,55.70
2018-03-08T08:03:59.362Z,55.70
2018-03-08T08:06:38.614Z,55.30
2018-03-08T08:09:09.058Z,55.00
2018-03-08T08:11:36.542Z,54.70
2018-03-08T08:14:04.800Z,54.40
2018-03-08T08:16:32.273Z,54.30
2018-03-08T08:18:59.774Z,55.00
2018-03-08T08:21:27.259Z,54.50
2018-03-08T08:23:54.927Z,54.90
2018-03-08T08:26:22.424Z,54.30
2018-03-08T08:28:49.940Z,55.30
2018-03-08T08:31:17.419Z,54.80
2018-03-08T08:33:46.497Z,53.30
2018-03-08T08:36:14.007Z,53.20
2018-03-08T08:38:41.499Z,52.60
2018-03-08T08:41:08.972Z,49.40
2018-03-08T08:43:36.461Z,46.30
2018-03-08T08:46:03.957Z,41.70
2018-03-08T08:48:31.462Z,39.90
2018-03-08T08:50:58.980Z,37.90
2018-03-08T08:53:26.517Z,35.40
2018-03-08T08:55:54.003Z,35.20
2018-03-08T08:58:21.519Z,32.30
2018-03-08T09:00:49.006Z,32.80
2018-03-08T09:03:16.492Z,31.60
2018-03-08T09:05:44.019Z,30.00
2018-03-08T09:08:11.544Z,30.20
2018-03-08T09:10:39.803Z,29.80
2018-03-08T09:13:07.299Z,29.70
2018-03-08T09:15:34.802Z,30.00
2018-03-08T09:18:02.286Z,30.00
2018-03-08T09:20:30.554Z,28.80
2018-03-08T09:22:58.078Z,28.80
2018-03-08T09:25:25.596Z,28.70
2018-03-08T09:27:53.101Z,28.80
2018-03-08T09:30:20.614Z,27.50
2018-03-08T09:32:48.118Z,28.50
2018-03-08T09:35:15.670Z,26.80
2018-03-08T09:37:43.171Z,28.60
2018-03-08T09:40:11.453Z,26.90
2018-03-08T09:42:39.705Z,27.90
2018-03-08T09:45:07.184Z,28.30
2018-03-08T09:47:35.412Z,27.80
2018-03-08T09:50:02.884Z,27.80
2018-03-08T09:52:30.359Z,27.50
2018-03-08T09:54:57.832Z,28.80
2018-03-08T09:57:26.060Z,29.70
2018-03-08T09:59:53.550Z,29.60
2018-03-08T10:02:21.012Z,27.60
2018-03-08T10:04:48.493Z,28.30
2018-03-08T10:07:16.727Z,28.50
2018-03-08T10:09:44.214Z,28.50
2018-03-08T10:12:12.447Z,28.50
2018-03-08T10:14:39.950Z,28.50
2018-03-08T10:17:08.189Z,28.00
2018-03-08T10:19:35.712Z,28.00
2018-03-08T10:22:03.193Z,27.70
2018-03-08T10:24:30.659Z,27.90
2018-03-08T10:26:58.888Z,26.10
2018-03-08T10:29:26.354Z,26.10
2018-03-08T10:31:53.880Z,27.50
2018-03-08T10:34:22.175Z,26.30
2018-03-08T10:36:49.698Z,26.30
2018-03-08T10:39:29.906Z,27.60
2018-03-08T10:41:46.344Z,28.50
2018-03-08T10:44:13.808Z,29.00
2018-03-08T10:46:41.276Z,28.20
2018-03-08T10:49:08.763Z,30.40
2018-03-08T10:51:36.983Z,29.90
2018-03-08T10:54:04.448Z,29.50
2018-03-08T10:56:31.912Z,29.60
2018-03-08T10:58:59.396Z,29.90
2018-03-08T11:01:27.670Z,29.50
2018-03-08T11:03:56.030Z,29.40
2018-03-08T11:06:29.134Z,30.00
2018-03-08T11:08:57.405Z,29.40
2018-03-08T11:11:24.891Z,29.40
2018-03-08T11:13:53.121Z,27.80
2018-03-08T11:16:20.594Z,27.70
2018-03-08T11:18:48.847Z,28.10
2018-03-08T11:21:16.616Z,28.00
2018-03-08T11:23:44.077Z,27.50
2018-03-08T11:26:11.544Z,28.30
2018-03-08T11:28:39.011Z,28.60
2018-03-08T11:31:06.480Z,28.60
2018-03-08T11:33:34.720Z,27.50
2018-03-08T11:36:02.183Z,27.40
2018-03-08T11:38:29.657Z,26.30
2018-03-08T11:40:57.115Z,27.70
2018-03-08T11:43:24.684Z,29.00
2018-03-08T11:45:52.072Z,28.20
2018-03-08T11:48:19.542Z,28.10
2018-03-08T11:50:47.000Z,27.60
2018-03-08T11:53:14.472Z,27.90
2018-03-08T11:55:41.929Z,28.10
2018-03-08T11:58:09.403Z,28.60
2018-03-08T12:00:36.882Z,29.40
2018-03-08T12:03:04.356Z,28.80
2018-03-08T12:05:32.590Z,29.80
2018-03-08T12:08:00.067Z,29.80
2018-03-08T12:10:27.527Z,28.60
2018-03-08T12:12:54.998Z,28.20
2018-03-08T12:15:23.268Z,29.10
2018-03-08T12:17:51.564Z,29.40
2018-03-08T12:20:18.989Z,29.10
2018-03-08T12:22:46.477Z,30.50
2018-03-08T12:25:13.950Z,30.00
2018-03-08T12:27:41.432Z,30.90
2018-03-08T12:30:08.896Z,29.80
2018-03-08T12:32:36.353Z,31.80
2018-03-08T12:35:03.830Z,30.50
2018-03-08T12:37:31.285Z,31.60
2018-03-08T12:39:58.787Z,32.60
2018-03-08T12:42:26.249Z,32.40
2018-03-08T12:44:53.734Z,32.00
2018-03-08T12:47:21.201Z,30.90
2018-03-08T12:49:48.673Z,31.70
2018-03-08T12:52:16.142Z,31.50
2018-03-08T12:54:43.615Z,31.50
2018-03-08T12:57:11.848Z,31.40
2018-03-08T12:59:39.320Z,31.30
2018-03-08T13:02:07.239Z,31.80
2018-03-08T13:04:34.711Z,32.10
2018-03-08T13:07:02.186Z,32.20
2018-03-08T13:09:29.673Z,31.30
2018-03-08T13:11:57.165Z,31.00
2018-03-08T13:14:24.633Z,30.00
2018-03-08T13:16:52.093Z,31.10
2018-03-08T13:19:19.648Z,30.30
2018-03-08T13:21:47.116Z,31.60
2018-03-08T13:24:14.581Z,30.70
2018-03-08T13:26:42.112Z,30.20
2018-03-08T13:29:10.345Z,30.00
2018-03-08T13:31:37.806Z,30.00
2018-03-08T13:34:05.329Z,30.90
2018-03-08T13:36:32.800Z,30.90
2018-03-08T13:39:00.252Z,30.00
2018-03-08T13:41:27.738Z,30.10
2018-03-08T13:43:55.256Z,29.80
2018-03-08T13:46:22.728Z,30.50
2018-03-08T13:48:50.212Z,30.70
2018-03-08T13:51:17.719Z,30.10
2018-03-08T13:56:19.875Z,30.70
2018-03-08T13:58:48.103Z,31.40
2018-03-08T14:01:15.592Z,31.30
2018-03-08T14:03:43.146Z,31.70
2018-03-08T14:06:10.645Z,31.10
2018-03-08T14:08:38.925Z,31.00
2018-03-08T14:11:06.457Z,30.90
2018-03-08T14:13:33.935Z,30.40
2018-03-08T14:16:02.247Z,31.60
2018-03-08T14:18:29.755Z,31.50
2018-03-08T14:20:58.057Z,30.50
2018-03-08T14:23:25.538Z,30.40
2018-03-08T14:25:53.047Z,30.40
2018-03-08T14:28:21.315Z,31.90
2018-03-08T14:30:48.818Z,31.80
2018-03-08T14:33:16.325Z,31.80
2018-03-08T14:35:43.859Z,31.90
2018-03-08T14:38:11.359Z,31.00
2018-03-08T14:40:39.654Z,32.40
2018-03-08T14:43:07.186Z,32.40
2018-03-08T14:45:34.761Z,32.70
2018-03-08T14:48:03.101Z,31.70
2018-03-08T14:50:30.668Z,31.60
2018-03-08T14:52:58.282Z,31.90
2018-03-08T14:55:25.841Z,32.70
2018-03-08T14:57:53.412Z,33.10
2018-03-08T15:00:20.957Z,33.10
2018-03-08T15:02:48.511Z,32.90
2018-03-08T15:05:16.045Z,32.40
2018-03-08T15:07:44.384Z,31.90
2018-03-08T15:10:11.935Z,31.90
2018-03-08T15:12:39.567Z,33.10
2018-03-08T15:15:07.071Z,32.20
2018-03-08T15:17:34.613Z,31.80
2018-03-08T15:20:02.130Z,30.40
2018-03-08T15:22:30.445Z,32.10
2018-03-08T15:24:58.023Z,32.00
2018-03-08T15:27:25.587Z,32.20
2018-03-08T15:29:53.107Z,31.90
2018-03-08T15:32:20.672Z,31.50
2018-03-08T15:34:48.201Z,31.50
2018-03-08T15:37:16.526Z,32.40
2018-03-08T15:39:44.056Z,32.40
2018-03-08T15:42:11.634Z,30.80
2018-03-08T15:44:39.173Z,31.90
2018-03-08T15:47:06.734Z,32.00
2018-03-08T15:49:34.282Z,32.30
2018-03-08T15:52:02.567Z,31.50
2018-03-08T15:54:30.130Z,31.50
2018-03-08T15:56:57.674Z,30.90
2018-03-08T15:59:25.937Z,31.30
2018-03-08T16:01:53.578Z,31.20
2018-03-08T16:04:21.111Z,31.40
2018-03-08T16:10:39.740Z,32.00
2018-03-08T16:13:08.085Z,30.40
2018-03-08T16:15:35.606Z,30.40
2018-03-08T16:18:03.136Z,31.50
2018-03-08T16:20:31.452Z,32.30
2018-03-08T16:22:59.590Z,32.20
2018-03-08T16:25:27.146Z,33.00
2018-03-08T16:27:54.669Z,32.90
2018-03-08T16:30:22.171Z,32.80
2018-03-08T16:32:50.460Z,31.80
2018-03-08T16:35:18.818Z,32.60
2018-03-08T16:37:46.364Z,32.60
2018-03-08T16:40:13.877Z,33.50
2018-03-08T16:42:41.392Z,34.30
2018-03-08T16:45:08.904Z,33.50
2018-03-08T16:47:36.420Z,33.00
2018-03-08T16:50:04.764Z,33.70
2018-03-08T16:52:32.235Z,33.70
2018-03-08T16:54:59.757Z,33.70
2018-03-08T16:57:27.317Z,34.50
2018-03-08T16:59:54.846Z,34.30
2018-03-08T17:02:22.378Z,35.40
2018-03-08T17:04:49.899Z,36.10
2018-03-08T17:07:17.419Z,34.90
2018-03-08T17:09:45.773Z,36.90
2018-03-08T17:12:13.320Z,36.90
2018-03-08T17:14:40.798Z,36.40
2018-03-08T17:17:08.301Z,37.10
2018-03-08T17:19:35.792Z,35.90
2018-03-08T17:22:03.282Z,36.90
2018-03-08T17:24:31.600Z,37.10
2018-03-08T17:26:59.086Z,37.00
2018-03-08T17:29:26.573Z,36.20
2018-03-08T17:31:54.852Z,35.90
2018-03-08T17:34:23.180Z,36.80
2018-03-08T17:36:50.668Z,36.60
2018-03-08T17:39:18.197Z,35.70
2018-03-08T17:41:45.729Z,35.50
2018-03-08T17:44:13.233Z,35.30
2018-03-08T17:46:40.749Z,36.80
2018-03-08T17:49:08.253Z,36.20
2018-03-08T17:51:35.787Z,34.70
2018-03-08T17:54:03.296Z,35.30
2018-03-08T17:56:31.576Z,35.10
2018-03-08T17:58:59.846Z,35.20
2018-03-08T18:01:27.345Z,35.10
2018-03-08T18:03:54.854Z,34.40
2018-03-08T18:06:22.394Z,34.90
2018-03-08T18:08:49.963Z,34.40
2018-03-08T18:11:17.485Z,35.10
2018-03-08T18:13:45.068Z,34.60
2018-03-08T18:16:12.640Z,34.50
2018-03-08T18:18:40.167Z,34.70
2018-03-08T18:21:07.683Z,34.80
2018-03-08T18:23:35.966Z,34.80
2018-03-08T18:26:04.243Z,34.90
2018-03-08T18:28:32.539Z,34.50
2018-03-08T18:31:00.082Z,34.40
2018-03-08T18:33:28.358Z,34.90
2018-03-08T18:35:55.857Z,34.80
2018-03-08T18:38:23.727Z,34.70
2018-03-08T18:40:51.216Z,34.80
2018-03-08T18:43:18.710Z,34.80
2018-03-08T18:45:46.185Z,35.00
2018-03-08T18:48:13.676Z,34.80
2018-03-08T18:50:41.165Z,34.70
2018-03-08T18:53:09.410Z,34.80
2018-03-08T18:55:36.874Z,34.80
2018-03-08T18:58:16.203Z,34.70
2018-03-08T19:00:43.669Z,35.40
2018-03-08T19:03:11.159Z,35.00
2018-03-08T19:05:39.393Z,35.30
2018-03-08T19:08:06.877Z,35.20
2018-03-08T19:10:34.351Z,35.20
2018-03-08T19:13:02.609Z,35.30
2018-03-08T19:15:30.083Z,35.30
2018-03-08T19:17:58.352Z,35.80
2018-03-08T19:20:26.593Z,35.60
2018-03-08T19:22:54.075Z,35.50
2018-03-08T19:25:21.549Z,35.80
2018-03-08T19:27:49.829Z,35.80
2018-03-08T19:30:18.129Z,35.90
2018-03-08T19:32:45.570Z,35.90
2018-03-08T19:35:13.050Z,36.10
2018-03-08T19:37:40.533Z,36.20
2018-03-08T19:40:08.001Z,36.20
2018-03-08T19:42:35.540Z,36.50
2018-03-08T19:45:03.048Z,36.30
2018-03-08T19:47:31.395Z,36.00
2018-03-08T19:49:58.933Z,36.00
2018-03-08T19:52:26.409Z,36.20
2018-03-08T19:54:53.889Z,36.30
2018-03-08T19:57:21.410Z,36.30
2018-03-08T19:59:48.879Z,36.20
2018-03-08T20:02:16.343Z,36.10
2018-03-08T20:04:43.817Z,35.90
2018-03-08T20:07:11.274Z,36.40
2018-03-08T20:09:38.934Z,36.40
2018-03-08T20:12:07.187Z,36.60
2018-03-08T20:14:34.664Z,36.60
2018-03-08T20:17:02.121Z,37.10
2018-03-08T20:19:29.596Z,37.50
2018-03-08T20:21:57.821Z,37.20
2018-03-08T20:24:25.288Z,37.20
2018-03-08T20:26:52.749Z,36.90
2018-03-08T20:29:20.286Z,36.80
2018-03-08T20:31:47.760Z,36.60
2018-03-08T20:34:15.265Z,37.30
2018-03-08T20:36:43.479Z,36.70
2018-03-08T20:39:10.964Z,36.60
2018-03-08T20:41:38.413Z,37.80
2018-03-08T20:44:05.890Z,36.70
2018-03-08T20:46:33.358Z,36.50
2018-03-08T20:49:00.827Z,36.60
2018-03-08T20:51:29.048Z,37.20
2018-03-08T20:53:56.525Z,36.90
2018-03-08T20:56:23.980Z,36.80
2018-03-08T20:58:51.451Z,36.70
2018-03-08T21:01:18.919Z,36.80
2018-03-08T21:03:46.372Z,36.80
2018-03-08T21:06:13.845Z,36.80
2018-03-08T21:08:42.067Z,38.00
2018-03-08T21:11:09.541Z,37.40
2018-03-08T21:13:36.999Z,37.80
2018-03-08T21:16:04.483Z,37.80
2018-03-08T21:18:31.948Z,38.20
2018-03-08T21:20:59.421Z,38.10
2018-03-08T21:23:27.671Z,38.10
2018-03-08T21:25:55.135Z,38.00
2018-03-08T21:28:22.596Z,37.70
2018-03-08T21:30:50.832Z,38.30
2018-03-08T21:33:18.307Z,38.20
2018-03-08T21:35:45.793Z,38.20
2018-03-08T21:38:14.008Z,38.00
2018-03-08T21:40:41.476Z,37.90
2018-03-08T21:43:08.932Z,38.10
2018-03-08T21:45:36.415Z,38.40
2018-03-08T21:48:04.614Z,38.80
2018-03-08T21:50:32.868Z,39.20
2018-03-08T21:53:00.330Z,39.10
2018-03-08T21:55:27.799Z,38.70
2018-03-08T21:57:55.274Z,38.80
2018-03-08T22:00:23.516Z,38.90
2018-03-08T22:02:50.971Z,38.70
2018-03-08T22:05:18.446Z,38.90
2018-03-08T22:07:45.902Z,40.10
2018-03-08T22:10:13.368Z,39.60
2018-03-08T22:12:41.597Z,39.20
2018-03-08T22:15:09.075Z,39.20
2018-03-08T22:17:36.553Z,39.10
2018-03-08T22:20:04.013Z,39.30
2018-03-08T22:22:32.256Z,39.00
2018-03-08T22:24:59.713Z,39.00
2018-03-08T22:27:27.195Z,38.90
2018-03-08T22:29:55.446Z,38.90
2018-03-08T22:32:22.916Z,39.20
2018-03-08T22:34:50.395Z,39.00
2018-03-08T22:37:17.888Z,39.20
2018-03-08T22:39:45.356Z,39.40
2018-03-08T22:42:12.841Z,39.30
2018-03-08T22:44:40.308Z,40.10
2018-03-08T22:47:07.788Z,39.90
2018-03-08T22:49:36.037Z,39.80
2018-03-08T22:52:03.508Z,39.70
2018-03-08T22:54:30.964Z,40.20
2018-03-08T22:56:58.458Z,39.80
2018-03-08T22:59:25.924Z,40.10
2018-03-08T23:02:12.108Z,40.10
2018-03-08T23:04:39.602Z,39.80
2018-03-08T23:07:07.088Z,39.90
2018-03-08T23:09:34.545Z,40.20
2018-03-08T23:12:02.024Z,40.30
2018-03-08T23:14:30.266Z,40.50
2018-03-08T23:16:57.736Z,40.50
2018-03-08T23:19:25.308Z,40.70
2018-03-08T23:21:52.764Z,40.60
2018-03-08T23:24:20.254Z,40.70
2018-03-08T23:26:47.713Z,40.60
2018-03-08T23:29:15.183Z,40.80
2018-03-08T23:31:42.652Z,40.60
2018-03-08T23:34:10.145Z,40.90
2018-03-08T23:36:37.636Z,40.90
2018-03-08T23:39:05.125Z,41.30
2018-03-08T23:41:32.596Z,41.10
2018-03-08T23:44:00.073Z,41.20
2018-03-08T23:46:27.556Z,41.60
2018-03-08T23:48:55.798Z,41.60
2018-03-08T23:51:23.283Z,41.60
2018-03-08T23:53:51.541Z,41.80
2018-03-08T23:56:19.000Z,41.80
2018-03-08T23:58:46.486Z,41.90
